Yellowstone Regional Airport
KCOD : now visible

Airfield :











YOU CAN JOIN US ON...

 
LOGIN :

Register | Disclaimer

   EN    FR    IT 

 









Legend :    VFR   Marginal VFR   IFR   Intensive IFR   Very Intensive IFR
Visi :
Ceiling :
>= 8 km
>= 3000ft
5 to 8 km
1000 to 3000 ft
1500m to 5 km
500 to 1000 ft
800 to 1500m
200 to 500 ft
< 800m
< 200 ft
Symbols :   Thunderstorms  Fog  Heavy snow  Heavy precipitations  Wind > 20 kt







- Airport Elevation : 5102 ft


KCOD - Yellowstone Regional

CURRENT METAR :
  • 210318Z AUTO 03006KT 10SM BKN006 OVC018 07/06 A2996 RMK AO2

EXPIRED METARs :
  • 210256Z AUTO 01008KT 10SM FEW006 BKN018 OVC110 07/06 A2995 RMK AO2 SLP136 T00670056 53012
  • 210237Z AUTO 03010KT 10SM FEW008 OVC110 07/06 A2995 RMK AO2
  • 210216Z AUTO 04007KT 10SM BKN008 OVC100 07/06 A2994 RMK AO2 CIG 005V012
  • 210156Z AUTO 01006KT 10SM FEW008 OVC100 07/06 A2994 RMK AO2 SLP128 T00720061
  • 210140Z AUTO 02005KT 10SM FEW008 OVC110 07/06 A2993 RMK AO2
  • 210106Z AUTO 04008KT 10SM FEW008 BKN017 08/06 A2993 RMK AO2
  • 210056Z AUTO 03010KT 10SM SCT015 08/06 A2992 RMK AO2 SLP125 T00830061

TAF KCOD
Valid from the 21 at 01:00 until the 22 at 00:00 UTC


210049Z 2101/2124 27006KT P6SM FEW040 SCT080
FM210200 31012G20KT P6SM VCSH BKN040
FM211200 32009KT P6SM VCSH SCT025 BKN040 AMD LTD TO CLD VIS AND WIND
No reported NOTAMs for that airfield.



MET'MAP, your aeronautical weather chart ! - Copyright ORBIFLY December 2007 - Disclaimer

ORBIFLY MET'MAP TEAM :

Programming & Development : Alexandra Zaïnal
Concept & Development : Baudouin d'Aumeries
Co-Development & Prog : Marc-Olivier Méhu
Technical & hardware support : Manuel Goepfert

Contact : metmap@orbifly.com




SOURCES & CREDITS :

   NOAA       Earth
Advisory